sensor_id;sensor_type;location;lat;lon;timestamp;P1;durP1;ratioP1;P2;durP2;ratioP2
31728;SDS011;18309;43.658;1.312;2022-11-20T00:00:05;7.13;;;2.50;;
31728;SDS011;18309;43.658;1.312;2022-11-20T00:02:31;8.50;;;2.38;;
31728;SDS011;18309;43.658;1.312;2022-11-20T00:04:57;5.78;;;2.03;;
31728;SDS011;18309;43.658;1.312;2022-11-20T00:07:23;4.40;;;1.73;;
31728;SDS011;18309;43.658;1.312;2022-11-20T00:09:48;7.40;;;2.15;;
31728;SDS011;18309;43.658;1.312;2022-11-20T00:12:14;8.40;;;1.83;;
31728;SDS011;18309;43.658;1.312;2022-11-20T00:14:40;3.28;;;1.90;;
31728;SDS011;18309;43.658;1.312;2022-11-20T00:17:06;4.07;;;1.80;;
31728;SDS011;18309;43.658;1.312;2022-11-20T00:19:32;3.83;;;1.58;;
31728;SDS011;18309;43.658;1.312;2022-11-20T00:21:57;3.25;;;1.10;;
31728;SDS011;18309;43.658;1.312;2022-11-20T00:24:23;3.53;;;1.45;;
31728;SDS011;18309;43.658;1.312;2022-11-20T00:26:49;5.85;;;1.70;;
31728;SDS011;18309;43.658;1.312;2022-11-20T00:29:14;3.65;;;1.55;;
31728;SDS011;18309;43.658;1.312;2022-11-20T00:31:40;4.45;;;1.60;;
31728;SDS011;18309;43.658;1.312;2022-11-20T00:34:06;3.83;;;1.60;;
31728;SDS011;18309;43.658;1.312;2022-11-20T00:36:32;3.78;;;1.30;;
31728;SDS011;18309;43.658;1.312;2022-11-20T00:38:58;2.60;;;1.38;;
31728;SDS011;18309;43.658;1.312;2022-11-20T00:41:25;5.38;;;1.17;;
31728;SDS011;18309;43.658;1.312;2022-11-20T00:43:53;7.28;;;1.58;;
31728;SDS011;18309;43.658;1.312;2022-11-20T00:46:20;3.60;;;1.50;;
31728;SDS011;18309;43.658;1.312;2022-11-20T00:48:47;4.22;;;1.38;;
31728;SDS011;18309;43.658;1.312;2022-11-20T00:51:14;2.60;;;1.20;;
31728;SDS011;18309;43.658;1.312;2022-11-20T00:53:41;6.82;;;2.22;;
31728;SDS011;18309;43.658;1.312;2022-11-20T00:56:09;7.00;;;1.67;;
31728;SDS011;18309;43.658;1.312;2022-11-20T00:58:38;6.07;;;1.83;;
31728;SDS011;18309;43.658;1.312;2022-11-20T01:03:34;9.90;;;2.72;;
31728;SDS011;18309;43.658;1.312;2022-11-20T01:06:02;7.95;;;3.03;;
31728;SDS011;18309;43.658;1.312;2022-11-20T01:08:30;7.57;;;3.00;;
31728;SDS011;18309;43.658;1.312;2022-11-20T01:11:04;12.32;;;3.25;;
31728;SDS011;18309;43.658;1.312;2022-11-20T01:13:31;11.25;;;3.90;;
31728;SDS011;18309;43.658;1.312;2022-11-20T01:16:13;12.18;;;4.32;;
31728;SDS011;18309;43.658;1.312;2022-11-20T01:18:48;8.88;;;3.50;;
31728;SDS011;18309;43.658;1.312;2022-11-20T01:21:25;7.82;;;2.78;;
31728;SDS011;18309;43.658;1.312;2022-11-20T01:23:55;10.57;;;3.03;;
31728;SDS011;18309;43.658;1.312;2022-11-20T01:26:23;8.20;;;2.08;;
31728;SDS011;18309;43.658;1.312;2022-11-20T01:28:54;4.57;;;1.67;;
31728;SDS011;18309;43.658;1.312;2022-11-20T01:33:51;4.18;;;1.70;;
31728;SDS011;18309;43.658;1.312;2022-11-20T01:36:19;4.95;;;1.75;;
31728;SDS011;18309;43.658;1.312;2022-11-20T01:38:46;3.90;;;1.67;;
31728;SDS011;18309;43.658;1.312;2022-11-20T01:41:14;4.85;;;1.73;;
31728;SDS011;18309;43.658;1.312;2022-11-20T01:44:01;3.65;;;1.38;;
31728;SDS011;18309;43.658;1.312;2022-11-20T01:46:28;3.80;;;1.40;;
31728;SDS011;18309;43.658;1.312;2022-11-20T01:48:55;5.55;;;1.95;;
31728;SDS011;18309;43.658;1.312;2022-11-20T01:54:02;7.25;;;1.80;;
31728;SDS011;18309;43.658;1.312;2022-11-20T01:56:31;1.90;;;1.17;;
31728;SDS011;18309;43.658;1.312;2022-11-20T01:59:02;2.88;;;1.73;;
31728;SDS011;18309;43.658;1.312;2022-11-20T02:01:30;3.05;;;1.38;;
31728;SDS011;18309;43.658;1.312;2022-11-20T02:03:56;2.90;;;1.33;;
31728;SDS011;18309;43.658;1.312;2022-11-20T02:06:23;2.83;;;1.40;;
31728;SDS011;18309;43.658;1.312;2022-11-20T02:08:50;2.58;;;1.08;;
31728;SDS011;18309;43.658;1.312;2022-11-20T02:11:17;3.15;;;1.40;;
31728;SDS011;18309;43.658;1.312;2022-11-20T02:13:43;3.47;;;1.20;;
31728;SDS011;18309;43.658;1.312;2022-11-20T02:16:14;2.10;;;1.23;;
31728;SDS011;18309;43.658;1.312;2022-11-20T02:18:40;5.53;;;1.15;;
31728;SDS011;18309;43.658;1.312;2022-11-20T02:24:01;2.70;;;1.05;;
31728;SDS011;18309;43.658;1.312;2022-11-20T02:26:30;2.50;;;1.20;;
31728;SDS011;18309;43.658;1.312;2022-11-20T02:28:58;2.28;;;0.93;;
31728;SDS011;18309;43.658;1.312;2022-11-20T02:31:25;2.80;;;1.20;;
31728;SDS011;18309;43.658;1.312;2022-11-20T02:33:57;3.92;;;1.38;;
31728;SDS011;18309;43.658;1.312;2022-11-20T02:36:23;2.78;;;1.25;;
31728;SDS011;18309;43.658;1.312;2022-11-20T02:38:51;4.22;;;1.38;;
31728;SDS011;18309;43.658;1.312;2022-11-20T02:41:17;7.28;;;1.30;;
31728;SDS011;18309;43.658;1.312;2022-11-20T02:43:43;2.80;;;1.13;;
31728;SDS011;18309;43.658;1.312;2022-11-20T02:46:09;4.00;;;1.35;;
31728;SDS011;18309;43.658;1.312;2022-11-20T02:48:35;3.28;;;1.50;;
31728;SDS011;18309;43.658;1.312;2022-11-20T02:51:00;3.70;;;1.15;;
31728;SDS011;18309;43.658;1.312;2022-11-20T02:53:26;4.82;;;1.48;;
31728;SDS011;18309;43.658;1.312;2022-11-20T02:55:52;3.28;;;1.02;;
31728;SDS011;18309;43.658;1.312;2022-11-20T02:58:17;2.95;;;1.20;;
31728;SDS011;18309;43.658;1.312;2022-11-20T03:00:43;3.00;;;1.40;;
31728;SDS011;18309;43.658;1.312;2022-11-20T03:03:09;7.35;;;1.30;;
31728;SDS011;18309;43.658;1.312;2022-11-20T03:05:35;3.72;;;1.38;;
31728;SDS011;18309;43.658;1.312;2022-11-20T03:08:00;3.03;;;1.00;;
31728;SDS011;18309;43.658;1.312;2022-11-20T03:10:26;3.80;;;1.50;;
31728;SDS011;18309;43.658;1.312;2022-11-20T03:12:52;2.67;;;1.00;;
31728;SDS011;18309;43.658;1.312;2022-11-20T03:15:19;6.22;;;1.27;;
31728;SDS011;18309;43.658;1.312;2022-11-20T03:17:45;3.88;;;1.17;;
31728;SDS011;18309;43.658;1.312;2022-11-20T03:20:11;3.20;;;1.30;;
31728;SDS011;18309;43.658;1.312;2022-11-20T03:22:36;3.15;;;1.13;;
31728;SDS011;18309;43.658;1.312;2022-11-20T03:25:02;4.13;;;1.33;;
31728;SDS011;18309;43.658;1.312;2022-11-20T03:27:31;2.03;;;1.15;;
31728;SDS011;18309;43.658;1.312;2022-11-20T03:29:58;5.22;;;1.23;;
31728;SDS011;18309;43.658;1.312;2022-11-20T03:32:24;2.80;;;1.42;;
31728;SDS011;18309;43.658;1.312;2022-11-20T03:34:50;3.13;;;1.13;;
31728;SDS011;18309;43.658;1.312;2022-11-20T03:37:15;2.22;;;1.00;;
31728;SDS011;18309;43.658;1.312;2022-11-20T03:39:41;2.17;;;1.27;;
31728;SDS011;18309;43.658;1.312;2022-11-20T03:42:07;3.85;;;1.30;;
31728;SDS011;18309;43.658;1.312;2022-11-20T03:44:53;3.80;;;1.10;;
31728;SDS011;18309;43.658;1.312;2022-11-20T03:47:19;2.65;;;1.00;;
31728;SDS011;18309;43.658;1.312;2022-11-20T03:49:45;6.00;;;1.52;;
31728;SDS011;18309;43.658;1.312;2022-11-20T03:52:10;4.35;;;1.00;;
31728;SDS011;18309;43.658;1.312;2022-11-20T03:54:36;2.88;;;1.30;;
31728;SDS011;18309;43.658;1.312;2022-11-20T03:57:01;2.08;;;1.17;;
31728;SDS011;18309;43.658;1.312;2022-11-20T03:59:27;2.75;;;1.10;;
31728;SDS011;18309;43.658;1.312;2022-11-20T04:01:53;4.35;;;1.50;;
31728;SDS011;18309;43.658;1.312;2022-11-20T04:04:18;3.35;;;1.25;;
31728;SDS011;18309;43.658;1.312;2022-11-20T04:06:44;4.97;;;0.90;;
31728;SDS011;18309;43.658;1.312;2022-11-20T04:09:10;5.80;;;1.27;;
31728;SDS011;18309;43.658;1.312;2022-11-20T04:11:36;2.05;;;1.20;;
31728;SDS011;18309;43.658;1.312;2022-11-20T04:14:05;3.50;;;1.35;;
31728;SDS011;18309;43.658;1.312;2022-11-20T04:16:36;4.13;;;1.70;;
31728;SDS011;18309;43.658;1.312;2022-11-20T04:19:03;1.80;;;1.10;;
31728;SDS011;18309;43.658;1.312;2022-11-20T04:21:31;3.55;;;1.33;;
31728;SDS011;18309;43.658;1.312;2022-11-20T04:23:57;2.20;;;1.30;;
31728;SDS011;18309;43.658;1.312;2022-11-20T04:26:24;2.50;;;1.50;;
31728;SDS011;18309;43.658;1.312;2022-11-20T04:28:51;3.03;;;1.55;;
31728;SDS011;18309;43.658;1.312;2022-11-20T04:31:18;2.60;;;1.40;;
31728;SDS011;18309;43.658;1.312;2022-11-20T04:33:46;2.95;;;1.63;;
31728;SDS011;18309;43.658;1.312;2022-11-20T04:36:14;4.38;;;1.95;;
31728;SDS011;18309;43.658;1.312;2022-11-20T04:38:40;6.32;;;1.80;;
31728;SDS011;18309;43.658;1.312;2022-11-20T04:41:06;6.75;;;2.58;;
31728;SDS011;18309;43.658;1.312;2022-11-20T04:43:33;5.47;;;2.40;;
31728;SDS011;18309;43.658;1.312;2022-11-20T04:45:59;6.18;;;2.58;;
31728;SDS011;18309;43.658;1.312;2022-11-20T04:48:27;11.63;;;3.17;;
31728;SDS011;18309;43.658;1.312;2022-11-20T04:50:53;7.82;;;3.30;;
31728;SDS011;18309;43.658;1.312;2022-11-20T04:53:20;7.78;;;2.85;;
31728;SDS011;18309;43.658;1.312;2022-11-20T04:55:47;5.25;;;2.63;;
31728;SDS011;18309;43.658;1.312;2022-11-20T04:58:13;6.35;;;3.30;;
31728;SDS011;18309;43.658;1.312;2022-11-20T05:00:39;8.07;;;2.90;;
31728;SDS011;18309;43.658;1.312;2022-11-20T05:03:05;7.03;;;2.40;;
31728;SDS011;18309;43.658;1.312;2022-11-20T05:05:31;3.55;;;2.03;;
31728;SDS011;18309;43.658;1.312;2022-11-20T05:07:58;7.07;;;2.55;;
31728;SDS011;18309;43.658;1.312;2022-11-20T05:10:24;6.13;;;2.35;;
31728;SDS011;18309;43.658;1.312;2022-11-20T05:12:51;7.57;;;2.30;;
31728;SDS011;18309;43.658;1.312;2022-11-20T05:15:16;5.22;;;1.95;;
31728;SDS011;18309;43.658;1.312;2022-11-20T05:17:49;3.72;;;1.65;;
31728;SDS011;18309;43.658;1.312;2022-11-20T05:20:15;3.78;;;1.85;;
31728;SDS011;18309;43.658;1.312;2022-11-20T05:22:41;6.30;;;1.80;;
31728;SDS011;18309;43.658;1.312;2022-11-20T05:25:07;3.97;;;2.20;;
31728;SDS011;18309;43.658;1.312;2022-11-20T05:27:33;9.77;;;2.45;;
31728;SDS011;18309;43.658;1.312;2022-11-20T05:29:59;4.03;;;1.88;;
31728;SDS011;18309;43.658;1.312;2022-11-20T05:32:24;5.95;;;2.10;;
31728;SDS011;18309;43.658;1.312;2022-11-20T05:34:50;3.33;;;1.90;;
31728;SDS011;18309;43.658;1.312;2022-11-20T05:37:17;4.05;;;2.10;;
31728;SDS011;18309;43.658;1.312;2022-11-20T05:39:42;3.00;;;1.70;;
31728;SDS011;18309;43.658;1.312;2022-11-20T05:42:08;10.13;;;1.88;;
31728;SDS011;18309;43.658;1.312;2022-11-20T05:44:52;3.47;;;1.58;;
31728;SDS011;18309;43.658;1.312;2022-11-20T05:47:17;7.90;;;2.08;;
31728;SDS011;18309;43.658;1.312;2022-11-20T05:49:43;6.25;;;1.80;;
31728;SDS011;18309;43.658;1.312;2022-11-20T05:52:09;3.35;;;1.75;;
31728;SDS011;18309;43.658;1.312;2022-11-20T05:54:34;8.57;;;2.22;;
31728;SDS011;18309;43.658;1.312;2022-11-20T05:57:00;4.32;;;2.25;;
31728;SDS011;18309;43.658;1.312;2022-11-20T05:59:26;6.05;;;2.08;;
31728;SDS011;18309;43.658;1.312;2022-11-20T06:01:52;6.82;;;2.45;;
31728;SDS011;18309;43.658;1.312;2022-11-20T06:04:17;4.35;;;2.00;;
31728;SDS011;18309;43.658;1.312;2022-11-20T06:06:43;6.80;;;2.55;;
31728;SDS011;18309;43.658;1.312;2022-11-20T06:09:09;7.80;;;2.97;;
31728;SDS011;18309;43.658;1.312;2022-11-20T06:11:34;7.22;;;3.10;;
31728;SDS011;18309;43.658;1.312;2022-11-20T06:14:00;8.32;;;3.15;;
31728;SDS011;18309;43.658;1.312;2022-11-20T06:16:26;6.28;;;3.13;;
31728;SDS011;18309;43.658;1.312;2022-11-20T06:18:51;6.35;;;2.80;;
31728;SDS011;18309;43.658;1.312;2022-11-20T06:21:18;5.90;;;3.03;;
31728;SDS011;18309;43.658;1.312;2022-11-20T06:23:46;7.05;;;3.40;;
31728;SDS011;18309;43.658;1.312;2022-11-20T06:26:13;7.57;;;3.25;;
31728;SDS011;18309;43.658;1.312;2022-11-20T06:28:44;5.57;;;3.60;;
31728;SDS011;18309;43.658;1.312;2022-11-20T06:31:11;7.72;;;4.32;;
31728;SDS011;18309;43.658;1.312;2022-11-20T06:33:38;10.05;;;4.30;;
31728;SDS011;18309;43.658;1.312;2022-11-20T06:36:05;13.70;;;4.80;;
31728;SDS011;18309;43.658;1.312;2022-11-20T06:38:31;11.50;;;5.60;;
31728;SDS011;18309;43.658;1.312;2022-11-20T06:40:56;12.07;;;6.03;;
31728;SDS011;18309;43.658;1.312;2022-11-20T06:43:22;12.63;;;6.20;;
31728;SDS011;18309;43.658;1.312;2022-11-20T06:45:55;9.88;;;5.68;;
31728;SDS011;18309;43.658;1.312;2022-11-20T06:48:22;10.68;;;5.80;;
31728;SDS011;18309;43.658;1.312;2022-11-20T06:50:48;9.68;;;5.05;;
31728;SDS011;18309;43.658;1.312;2022-11-20T06:53:15;12.35;;;5.07;;
31728;SDS011;18309;43.658;1.312;2022-11-20T06:55:44;10.38;;;5.07;;
31728;SDS011;18309;43.658;1.312;2022-11-20T06:58:11;20.02;;;7.78;;
31728;SDS011;18309;43.658;1.312;2022-11-20T07:00:38;23.85;;;9.68;;
31728;SDS011;18309;43.658;1.312;2022-11-20T07:03:05;22.25;;;9.38;;
31728;SDS011;18309;43.658;1.312;2022-11-20T07:05:41;15.40;;;8.00;;
31728;SDS011;18309;43.658;1.312;2022-11-20T07:08:07;13.95;;;7.10;;
31728;SDS011;18309;43.658;1.312;2022-11-20T07:10:34;15.75;;;6.53;;
31728;SDS011;18309;43.658;1.312;2022-11-20T07:13:00;13.52;;;6.68;;
31728;SDS011;18309;43.658;1.312;2022-11-20T07:15:26;10.25;;;5.25;;
31728;SDS011;18309;43.658;1.312;2022-11-20T07:17:52;9.25;;;5.38;;
31728;SDS011;18309;43.658;1.312;2022-11-20T07:20:18;14.40;;;6.43;;
31728;SDS011;18309;43.658;1.312;2022-11-20T07:22:43;22.55;;;9.93;;
31728;SDS011;18309;43.658;1.312;2022-11-20T07:25:10;34.55;;;13.70;;
31728;SDS011;18309;43.658;1.312;2022-11-20T07:27:36;25.10;;;12.27;;
31728;SDS011;18309;43.658;1.312;2022-11-20T07:30:02;33.17;;;13.48;;
31728;SDS011;18309;43.658;1.312;2022-11-20T07:32:29;28.45;;;12.60;;
31728;SDS011;18309;43.658;1.312;2022-11-20T07:34:54;28.55;;;13.05;;
31728;SDS011;18309;43.658;1.312;2022-11-20T07:37:20;25.77;;;12.23;;
31728;SDS011;18309;43.658;1.312;2022-11-20T07:39:46;20.65;;;9.10;;
31728;SDS011;18309;43.658;1.312;2022-11-20T07:42:12;20.70;;;8.60;;
31728;SDS011;18309;43.658;1.312;2022-11-20T07:44:38;16.88;;;7.43;;
31728;SDS011;18309;43.658;1.312;2022-11-20T07:47:04;14.07;;;6.20;;
31728;SDS011;18309;43.658;1.312;2022-11-20T07:49:33;12.95;;;6.32;;
31728;SDS011;18309;43.658;1.312;2022-11-20T07:51:58;14.88;;;6.05;;
31728;SDS011;18309;43.658;1.312;2022-11-20T07:54:24;15.07;;;6.57;;
31728;SDS011;18309;43.658;1.312;2022-11-20T07:56:50;11.30;;;6.00;;
31728;SDS011;18309;43.658;1.312;2022-11-20T07:59:18;15.38;;;6.72;;
31728;SDS011;18309;43.658;1.312;2022-11-20T08:01:44;13.18;;;7.03;;
31728;SDS011;18309;43.658;1.312;2022-11-20T08:04:10;21.52;;;8.07;;
31728;SDS011;18309;43.658;1.312;2022-11-20T08:06:36;17.50;;;9.20;;
31728;SDS011;18309;43.658;1.312;2022-11-20T08:09:11;16.33;;;8.55;;
31728;SDS011;18309;43.658;1.312;2022-11-20T08:11:39;16.25;;;8.80;;
31728;SDS011;18309;43.658;1.312;2022-11-20T08:14:26;18.35;;;9.82;;
31728;SDS011;18309;43.658;1.312;2022-11-20T08:16:52;16.70;;;8.35;;
31728;SDS011;18309;43.658;1.312;2022-11-20T08:19:18;17.20;;;8.48;;
31728;SDS011;18309;43.658;1.312;2022-11-20T08:21:44;16.63;;;8.32;;
31728;SDS011;18309;43.658;1.312;2022-11-20T08:24:10;21.48;;;9.30;;
31728;SDS011;18309;43.658;1.312;2022-11-20T08:26:37;17.65;;;8.40;;
31728;SDS011;18309;43.658;1.312;2022-11-20T08:29:03;14.05;;;7.32;;
31728;SDS011;18309;43.658;1.312;2022-11-20T08:31:29;16.45;;;8.77;;
31728;SDS011;18309;43.658;1.312;2022-11-20T08:33:56;19.80;;;10.35;;
31728;SDS011;18309;43.658;1.312;2022-11-20T08:36:22;17.63;;;9.05;;
31728;SDS011;18309;43.658;1.312;2022-11-20T08:38:49;17.98;;;9.93;;
31728;SDS011;18309;43.658;1.312;2022-11-20T08:41:16;21.15;;;9.35;;
31728;SDS011;18309;43.658;1.312;2022-11-20T08:46:38;16.35;;;7.47;;
31728;SDS011;18309;43.658;1.312;2022-11-20T08:49:06;16.25;;;8.40;;
31728;SDS011;18309;43.658;1.312;2022-11-20T08:51:35;15.45;;;7.63;;
31728;SDS011;18309;43.658;1.312;2022-11-20T08:54:02;15.52;;;7.93;;
31728;SDS011;18309;43.658;1.312;2022-11-20T08:56:28;17.35;;;7.82;;
31728;SDS011;18309;43.658;1.312;2022-11-20T08:58:54;15.02;;;7.68;;
31728;SDS011;18309;43.658;1.312;2022-11-20T09:01:21;12.63;;;6.15;;
31728;SDS011;18309;43.658;1.312;2022-11-20T09:03:48;16.38;;;7.40;;
31728;SDS011;18309;43.658;1.312;2022-11-20T09:06:14;15.52;;;6.60;;
31728;SDS011;18309;43.658;1.312;2022-11-20T09:08:40;16.00;;;8.10;;
31728;SDS011;18309;43.658;1.312;2022-11-20T09:11:06;18.45;;;9.65;;
31728;SDS011;18309;43.658;1.312;2022-11-20T09:13:33;16.27;;;8.10;;
31728;SDS011;18309;43.658;1.312;2022-11-20T09:16:01;19.83;;;8.57;;
31728;SDS011;18309;43.658;1.312;2022-11-20T09:18:29;16.38;;;7.43;;
31728;SDS011;18309;43.658;1.312;2022-11-20T09:21:00;17.55;;;7.93;;
31728;SDS011;18309;43.658;1.312;2022-11-20T09:23:27;13.17;;;7.33;;
31728;SDS011;18309;43.658;1.312;2022-11-20T09:25:55;16.00;;;8.60;;
31728;SDS011;18309;43.658;1.312;2022-11-20T09:28:24;15.57;;;8.05;;
31728;SDS011;18309;43.658;1.312;2022-11-20T09:30:50;16.95;;;7.72;;
31728;SDS011;18309;43.658;1.312;2022-11-20T09:33:16;19.70;;;9.27;;
31728;SDS011;18309;43.658;1.312;2022-11-20T09:35:43;17.52;;;8.60;;
31728;SDS011;18309;43.658;1.312;2022-11-20T09:38:09;17.33;;;7.68;;
31728;SDS011;18309;43.658;1.312;2022-11-20T09:40:37;17.33;;;7.93;;
31728;SDS011;18309;43.658;1.312;2022-11-20T09:48:23;17.42;;;7.82;;
31728;SDS011;18309;43.658;1.312;2022-11-20T09:56:28;18.02;;;6.57;;
31728;SDS011;18309;43.658;1.312;2022-11-20T09:58:55;10.30;;;5.28;;
31728;SDS011;18309;43.658;1.312;2022-11-20T10:01:26;16.73;;;5.13;;
31728;SDS011;18309;43.658;1.312;2022-11-20T10:04:01;16.35;;;5.97;;
31728;SDS011;18309;43.658;1.312;2022-11-20T10:06:41;12.23;;;5.05;;
31728;SDS011;18309;43.658;1.312;2022-11-20T10:12:02;13.32;;;4.72;;
31728;SDS011;18309;43.658;1.312;2022-11-20T10:29:01;9.35;;;4.10;;
31728;SDS011;18309;43.658;1.312;2022-11-20T10:31:36;9.07;;;3.33;;
31728;SDS011;18309;43.658;1.312;2022-11-20T10:34:18;7.85;;;3.95;;
31728;SDS011;18309;43.658;1.312;2022-11-20T10:36:58;9.40;;;4.40;;
31728;SDS011;18309;43.658;1.312;2022-11-20T10:42:27;16.83;;;4.40;;
31728;SDS011;18309;43.658;1.312;2022-11-20T10:45:09;16.75;;;4.25;;
31728;SDS011;18309;43.658;1.312;2022-11-20T10:48:00;14.43;;;4.75;;
31728;SDS011;18309;43.658;1.312;2022-11-20T10:50:33;10.82;;;4.15;;
31728;SDS011;18309;43.658;1.312;2022-11-20T10:53:08;17.83;;;4.68;;
31728;SDS011;18309;43.658;1.312;2022-11-20T10:58:23;9.52;;;4.13;;
31728;SDS011;18309;43.658;1.312;2022-11-20T11:01:03;11.95;;;4.90;;
31728;SDS011;18309;43.658;1.312;2022-11-20T11:03:30;8.73;;;4.25;;
31728;SDS011;18309;43.658;1.312;2022-11-20T11:06:19;13.05;;;4.32;;
31728;SDS011;18309;43.658;1.312;2022-11-20T11:08:58;13.82;;;5.32;;
31728;SDS011;18309;43.658;1.312;2022-11-20T11:11:30;15.23;;;4.90;;
31728;SDS011;18309;43.658;1.312;2022-11-20T11:14:07;11.88;;;5.10;;
31728;SDS011;18309;43.658;1.312;2022-11-20T11:16:34;9.73;;;4.38;;
31728;SDS011;18309;43.658;1.312;2022-11-20T11:19:07;10.65;;;4.93;;
31728;SDS011;18309;43.658;1.312;2022-11-20T11:21:37;13.35;;;5.45;;
31728;SDS011;18309;43.658;1.312;2022-11-20T11:26:50;10.35;;;4.70;;
31728;SDS011;18309;43.658;1.312;2022-11-20T11:29:24;9.68;;;4.65;;
31728;SDS011;18309;43.658;1.312;2022-11-20T11:32:02;8.93;;;3.70;;
31728;SDS011;18309;43.658;1.312;2022-11-20T11:34:32;13.10;;;4.57;;
31728;SDS011;18309;43.658;1.312;2022-11-20T11:36:58;12.70;;;4.38;;
31728;SDS011;18309;43.658;1.312;2022-11-20T11:39:26;9.93;;;4.47;;
31728;SDS011;18309;43.658;1.312;2022-11-20T11:41:53;8.52;;;4.13;;
31728;SDS011;18309;43.658;1.312;2022-11-20T11:44:20;8.15;;;4.07;;
31728;SDS011;18309;43.658;1.312;2022-11-20T11:47:18;7.20;;;3.58;;
31728;SDS011;18309;43.658;1.312;2022-11-20T11:49:45;7.22;;;4.28;;
31728;SDS011;18309;43.658;1.312;2022-11-20T11:52:17;10.85;;;3.28;;
31728;SDS011;18309;43.658;1.312;2022-11-20T11:54:50;6.85;;;3.50;;
31728;SDS011;18309;43.658;1.312;2022-11-20T12:00:09;7.18;;;2.90;;
31728;SDS011;18309;43.658;1.312;2022-11-20T12:05:18;8.00;;;2.13;;
31728;SDS011;18309;43.658;1.312;2022-11-20T12:10:45;12.40;;;2.28;;
31728;SDS011;18309;43.658;1.312;2022-11-20T12:14:08;10.45;;;3.75;;
31728;SDS011;18309;43.658;1.312;2022-11-20T12:16:27;4.55;;;1.90;;
31728;SDS011;18309;43.658;1.312;2022-11-20T12:18:55;7.70;;;1.95;;
31728;SDS011;18309;43.658;1.312;2022-11-20T12:37:52;6.93;;;2.88;;
31728;SDS011;18309;43.658;1.312;2022-11-20T12:43:33;5.47;;;2.70;;
31728;SDS011;18309;43.658;1.312;2022-11-20T12:51:44;4.28;;;1.98;;
31728;SDS011;18309;43.658;1.312;2022-11-20T12:57:24;5.32;;;0.90;;
31728;SDS011;18309;43.658;1.312;2022-11-20T13:00:11;2.72;;;0.95;;
31728;SDS011;18309;43.658;1.312;2022-11-20T13:02:44;3.67;;;1.30;;
31728;SDS011;18309;43.658;1.312;2022-11-20T13:08:19;4.75;;;1.00;;
31728;SDS011;18309;43.658;1.312;2022-11-20T13:16:34;6.97;;;2.78;;
31728;SDS011;18309;43.658;1.312;2022-11-20T13:19:10;9.98;;;3.55;;
31728;SDS011;18309;43.658;1.312;2022-11-20T13:21:40;3.50;;;1.10;;
31728;SDS011;18309;43.658;1.312;2022-11-20T13:29:33;6.10;;;1.98;;
31728;SDS011;18309;43.658;1.312;2022-11-20T13:34:32;10.70;;;3.03;;
31728;SDS011;18309;43.658;1.312;2022-11-20T13:36:58;9.80;;;2.38;;
31728;SDS011;18309;43.658;1.312;2022-11-20T13:39:30;10.82;;;3.17;;
31728;SDS011;18309;43.658;1.312;2022-11-20T13:41:59;8.45;;;3.38;;
31728;SDS011;18309;43.658;1.312;2022-11-20T13:44:33;10.63;;;3.22;;
31728;SDS011;18309;43.658;1.312;2022-11-20T13:47:16;7.18;;;2.58;;
31728;SDS011;18309;43.658;1.312;2022-11-20T13:49:47;4.70;;;1.45;;
31728;SDS011;18309;43.658;1.312;2022-11-20T13:55:38;10.38;;;2.10;;
31728;SDS011;18309;43.658;1.312;2022-11-20T14:00:56;4.25;;;1.45;;
31728;SDS011;18309;43.658;1.312;2022-11-20T14:03:41;8.15;;;1.80;;
31728;SDS011;18309;43.658;1.312;2022-11-20T14:06:23;9.05;;;1.73;;
31728;SDS011;18309;43.658;1.312;2022-11-20T14:08:58;7.68;;;1.58;;
31728;SDS011;18309;43.658;1.312;2022-11-20T14:11:28;11.73;;;1.42;;
31728;SDS011;18309;43.658;1.312;2022-11-20T14:14:02;7.75;;;1.63;;
31728;SDS011;18309;43.658;1.312;2022-11-20T14:16:34;4.15;;;1.50;;
31728;SDS011;18309;43.658;1.312;2022-11-20T14:21:45;8.55;;;1.45;;
31728;SDS011;18309;43.658;1.312;2022-11-20T14:24:18;10.65;;;2.30;;
31728;SDS011;18309;43.658;1.312;2022-11-20T14:26:45;10.43;;;2.15;;
31728;SDS011;18309;43.658;1.312;2022-11-20T14:29:16;7.35;;;1.90;;
31728;SDS011;18309;43.658;1.312;2022-11-20T14:31:44;10.02;;;2.10;;
31728;SDS011;18309;43.658;1.312;2022-11-20T14:34:15;14.38;;;2.47;;
31728;SDS011;18309;43.658;1.312;2022-11-20T14:36:46;11.85;;;2.20;;
31728;SDS011;18309;43.658;1.312;2022-11-20T14:39:55;17.45;;;2.65;;
31728;SDS011;18309;43.658;1.312;2022-11-20T14:42:18;11.15;;;1.73;;
31728;SDS011;18309;43.658;1.312;2022-11-20T14:44:46;22.17;;;2.88;;
31728;SDS011;18309;43.658;1.312;2022-11-20T14:47:15;15.60;;;2.67;;
31728;SDS011;18309;43.658;1.312;2022-11-20T14:49:47;15.65;;;2.75;;
31728;SDS011;18309;43.658;1.312;2022-11-20T14:52:15;13.98;;;2.17;;
31728;SDS011;18309;43.658;1.312;2022-11-20T14:54:50;12.65;;;2.65;;
31728;SDS011;18309;43.658;1.312;2022-11-20T14:57:25;20.08;;;2.13;;
31728;SDS011;18309;43.658;1.312;2022-11-20T15:00:03;11.52;;;2.00;;
31728;SDS011;18309;43.658;1.312;2022-11-20T15:02:32;17.33;;;3.10;;
31728;SDS011;18309;43.658;1.312;2022-11-20T15:04:59;19.25;;;2.80;;
31728;SDS011;18309;43.658;1.312;2022-11-20T15:07:30;22.55;;;3.83;;
31728;SDS011;18309;43.658;1.312;2022-11-20T15:12:31;18.25;;;3.53;;
31728;SDS011;18309;43.658;1.312;2022-11-20T15:14:59;25.30;;;3.70;;
31728;SDS011;18309;43.658;1.312;2022-11-20T15:17:26;22.30;;;3.50;;
31728;SDS011;18309;43.658;1.312;2022-11-20T15:19:52;21.02;;;2.90;;
31728;SDS011;18309;43.658;1.312;2022-11-20T15:22:19;22.42;;;2.70;;
31728;SDS011;18309;43.658;1.312;2022-11-20T15:24:45;18.90;;;2.72;;
31728;SDS011;18309;43.658;1.312;2022-11-20T15:27:11;19.83;;;3.13;;
31728;SDS011;18309;43.658;1.312;2022-11-20T15:29:37;22.98;;;3.33;;
31728;SDS011;18309;43.658;1.312;2022-11-20T15:32:02;26.92;;;3.92;;
31728;SDS011;18309;43.658;1.312;2022-11-20T15:34:28;22.35;;;3.97;;
31728;SDS011;18309;43.658;1.312;2022-11-20T15:36:54;26.92;;;3.60;;
31728;SDS011;18309;43.658;1.312;2022-11-20T15:39:20;27.23;;;3.42;;
31728;SDS011;18309;43.658;1.312;2022-11-20T15:41:46;22.05;;;4.00;;
31728;SDS011;18309;43.658;1.312;2022-11-20T15:44:12;19.38;;;3.70;;
31728;SDS011;18309;43.658;1.312;2022-11-20T15:46:39;28.73;;;4.45;;
31728;SDS011;18309;43.658;1.312;2022-11-20T15:49:14;22.15;;;3.63;;
31728;SDS011;18309;43.658;1.312;2022-11-20T15:51:42;34.53;;;4.53;;
31728;SDS011;18309;43.658;1.312;2022-11-20T15:54:12;17.95;;;3.38;;
31728;SDS011;18309;43.658;1.312;2022-11-20T15:56:39;23.70;;;3.63;;
31728;SDS011;18309;43.658;1.312;2022-11-20T15:59:05;17.58;;;3.30;;
31728;SDS011;18309;43.658;1.312;2022-11-20T16:01:31;28.90;;;4.10;;
31728;SDS011;18309;43.658;1.312;2022-11-20T16:03:56;25.05;;;3.38;;
31728;SDS011;18309;43.658;1.312;2022-11-20T16:06:22;27.83;;;3.45;;
31728;SDS011;18309;43.658;1.312;2022-11-20T16:08:48;21.35;;;3.97;;
31728;SDS011;18309;43.658;1.312;2022-11-20T16:11:14;35.08;;;5.10;;
31728;SDS011;18309;43.658;1.312;2022-11-20T16:13:41;30.27;;;3.95;;
31728;SDS011;18309;43.658;1.312;2022-11-20T16:16:27;23.30;;;4.18;;
31728;SDS011;18309;43.658;1.312;2022-11-20T16:18:56;28.27;;;4.72;;
31728;SDS011;18309;43.658;1.312;2022-11-20T16:21:22;25.77;;;3.40;;
31728;SDS011;18309;43.658;1.312;2022-11-20T16:24:01;20.55;;;2.97;;
31728;SDS011;18309;43.658;1.312;2022-11-20T16:26:29;29.67;;;3.90;;
31728;SDS011;18309;43.658;1.312;2022-11-20T16:28:55;32.83;;;4.80;;
31728;SDS011;18309;43.658;1.312;2022-11-20T16:31:21;26.52;;;4.38;;
31728;SDS011;18309;43.658;1.312;2022-11-20T16:33:51;18.88;;;3.60;;
31728;SDS011;18309;43.658;1.312;2022-11-20T16:36:21;21.92;;;2.70;;
31728;SDS011;18309;43.658;1.312;2022-11-20T16:38:51;15.75;;;2.55;;
31728;SDS011;18309;43.658;1.312;2022-11-20T16:41:18;18.17;;;3.00;;
31728;SDS011;18309;43.658;1.312;2022-11-20T16:43:48;20.83;;;2.55;;